Terminal Aerodrome Forecast
Issued by NWS Quad Cities IA IL

Home | Current Version | Previous Version | Text Only | Print | Product List | Glossary On
Versions: 1 2 3 4 5 6 7 8 9 10 11 12 13 14 15 16 17 18 19 20 21 22 23 24 25 26 27
000
FTUS43 KDVN 202346
TAFMLI
TAF
KMLI 202346Z 2100/2124 09005KT 6SM BR OVC005
      TEMPO 2100/2103 2SM BR OVC003
     FM210300 12006KT 1/2SM -DZ FG OVC003
     FM211000 15007KT 2SM BR OVC004
     FM211300 17008KT 4SM BR OVC006
     FM211800 22011KT P6SM BKN020=

USA.gov is the U.S. government's official web portal to all federal, state and local government web resources and services.